地図

経路データ

SID SEASON NUMBER BASIN SUBBASIN NAME ISO_TIME NATURE LAT LON WMO_WIND WMO_PRES WMO_AGENCY TRACK_TYPE DIST2LAND LANDFALL IFLAG USA_AGENCY USA_ATCF_ID USA_LAT USA_LON USA_RECORD USA_STATUS USA_WIND USA_PRES USA_SSHS USA_R34_NE USA_R34_SE USA_R34_SW USA_R34_NW USA_R50_NE USA_R50_SE USA_R50_SW USA_R50_NW USA_R64_NE USA_R64_SE USA_R64_SW USA_R64_NW USA_POCI USA_ROCI USA_RMW USA_EYE TOKYO_LAT TOKYO_LON TOKYO_GRADE TOKYO_WIND TOKYO_PRES TOKYO_R50_DIR TOKYO_R50_LONG TOKYO_R50_SHORT TOKYO_R30_DIR TOKYO_R30_LONG TOKYO_R30_SHORT TOKYO_LAND CMA_LAT CMA_LON CMA_CAT CMA_WIND CMA_PRES HKO_LAT HKO_LON HKO_CAT HKO_WIND HKO_PRES NEWDELHI_LAT NEWDELHI_LON NEWDELHI_GRADE NEWDELHI_WIND NEWDELHI_PRES NEWDELHI_CI NEWDELHI_DP NEWDELHI_POCI REUNION_LAT REUNION_LON REUNION_TYPE REUNION_WIND REUNION_PRES REUNION_TNUM REUNION_CI REUNION_RMW REUNION_R34_NE REUNION_R34_SE REUNION_R34_SW REUNION_R34_NW REUNION_R50_NE REUNION_R50_SE REUNION_R50_SW REUNION_R50_NW REUNION_R64_NE REUNION_R64_SE REUNION_R64_SW REUNION_R64_NW BOM_LAT BOM_LON BOM_TYPE BOM_WIND BOM_PRES BOM_TNUM BOM_CI BOM_RMW BOM_R34_NE BOM_R34_SE BOM_R34_SW BOM_R34_NW BOM_R50_NE BOM_R50_SE BOM_R50_SW BOM_R50_NW BOM_R64_NE BOM_R64_SE BOM_R64_SW BOM_R64_NW BOM_ROCI BOM_POCI BOM_EYE BOM_POS_METHOD BOM_PRES_METHOD NADI_LAT NADI_LON NADI_CAT NADI_WIND NADI_PRES WELLINGTON_LAT WELLINGTON_LON WELLINGTON_WIND WELLINGTON_PRES DS824_LAT DS824_LON DS824_STAGE DS824_WIND DS824_PRES TD9636_LAT TD9636_LON TD9636_STAGE TD9636_WIND TD9636_PRES TD9635_LAT TD9635_LON TD9635_WIND TD9635_PRES TD9635_ROCI NEUMANN_LAT NEUMANN_LON NEUMANN_CLASS NEUMANN_WIND NEUMANN_PRES MLC_LAT MLC_LON MLC_CLASS MLC_WIND MLC_PRES USA_GUST BOM_GUST BOM_GUST_PER REUNION_GUST REUNION_GUST_PER USA_SEAHGT USA_SEARAD_NE USA_SEARAD_SE USA_SEARAD_SW USA_SEARAD_NW STORM_SPEED STORM_DIR
1935342N18131 1935 72 WP MM NOT_NAMED 1935-12-08 10:00:00 NR 17.5000 131.000 main 813 785 __________O___ -1 17.5000 131.000 7 9 278
1935342N18131 1935 72 WP MM NOT_NAMED 1935-12-08 12:00:00 NR 17.5436 130.688 main 785 746 __________P___ -1 17.5436 130.688 7 9 278
1935342N18131 1935 72 WP MM NOT_NAMED 1935-12-08 15:00:00 NR 17.6047 130.206 main 746 708 __________P___ -1 17.6047 130.206 7 10 277
1935342N18131 1935 72 WP MM NOT_NAMED 1935-12-08 18:00:00 NR 17.6561 129.687 main 708 658 __________P___ -1 17.6561 129.687 7 10 275
1935342N18131 1935 72 WP MM NOT_NAMED 1935-12-08 21:00:00 NR 17.6923 129.109 main 658 642 __________P___ -1 17.6923 129.109 7 11 273
1935342N18131 1935 72 WP MM NOT_NAMED 1935-12-08 22:00:00 NR 17.7000 128.900 main 642 611 __________O___ -1 17.7000 128.900 2 13 271
1935342N18131 1935 72 WP MM NOT_NAMED 1935-12-09 00:00:00 NR 17.7078 128.453 main 611 551 __________P___ -1 17.7078 128.453 2 14 270
1935342N18131 1935 72 WP MM NOT_NAMED 1935-12-09 03:00:00 NR 17.7009 127.714 main 551 473 __________P___ -1 17.7009 127.714 2 15 269
1935342N18131 1935 72 WP MM NOT_NAMED 1935-12-09 06:00:00 NR 17.6719 126.897 main 473 377 __________P___ -1 17.6719 126.897 2 16 267
1935342N18131 1935 72 WP MM NOT_NAMED 1935-12-09 09:00:00 NR 17.6215 126.010 main 377 356 __________P___ -1 17.6215 126.010 2 17 266
1935342N18131 1935 72 WP MM NOT_NAMED 1935-12-09 10:00:00 NR 17.6000 125.700 main 346 273 __________O___ -1 17.6000 125.700 2 19 268
1935342N18131 1935 72 WP MM NOT_NAMED 1935-12-09 12:00:00 NR 17.5917 125.006 main 273 162 __________P___ -1 17.5917 125.006 2 21 269
1935342N18131 1935 72 WP MM NOT_NAMED 1935-12-09 15:00:00 NR 17.5605 123.906 main 162 47 __________P___ -1 17.5605 123.906 2 21 267
1935342N18131 1935 72 WP MM NOT_NAMED 1935-12-09 18:00:00 NR 17.4718 122.827 main 47 0 __________P___ -1 17.4718 122.827 2 20 262
1935342N18131 1935 72 WP MM NOT_NAMED 1935-12-09 21:00:00 NR 17.2883 121.873 main 0 0 __________P___ -1 17.2883 121.873 2 18 257
1935342N18131 1935 72 WP MM NOT_NAMED 1935-12-09 22:00:00 NR 17.2000 121.600 main 0 0 __________O___ -1 17.2000 121.600 2 15 242
1935342N18131 1935 72 WP MM NOT_NAMED 1935-12-10 00:00:00 NR 16.9456 121.185 main 0 0 __________P___ -1 16.9456 121.185 2 13 229
1935342N18131 1935 72 WP MM NOT_NAMED 1935-12-10 03:00:00 NR 16.4711 120.714 main 0 0 __________P___ -1 16.4711 120.714 2 13 219
1935342N18131 1935 72 WP MM NOT_NAMED 1935-12-10 06:00:00 NR 15.9487 120.352 main 0 0 __________P___ -1 15.9487 120.352 2 12 213
1935342N18131 1935 72 WP MM NOT_NAMED 1935-12-10 09:00:00 NR 15.4492 120.019 main 0 0 __________P___ -1 15.4492 120.019 2 12 214
1935342N18131 1935 72 WP MM NOT_NAMED 1935-12-10 10:00:00 NR 15.3000 119.900 main 10 10 __________O___ -1 15.3000 119.900 2 11 225
1935342N18131 1935 72 WP MM NOT_NAMED 1935-12-10 12:00:00 NR 15.0498 119.600 main 53 53 __________P___ -1 15.0498 119.600 2 11 232
1935342N18131 1935 72 WP MM NOT_NAMED 1935-12-10 15:00:00 NR 14.7247 119.138 main 108 108 __________P___ -1 14.7247 119.138 2 11 237
1935342N18131 1935 72 WP MM NOT_NAMED 1935-12-10 18:00:00 NR 14.4597 118.660 main 154 167 __________P___ -1 14.4597 118.660 2 11 243
1935342N18131 1935 72 WP MM NOT_NAMED 1935-12-10 21:00:00 NR 14.2549 118.168 main 212 225 __________P___ -1 14.2549 118.168 2 10 248
1935342N18131 1935 72 WP MM NOT_NAMED 1935-12-10 22:00:00 NR 14.2000 118.000 main 235 235 __________O___ -1 14.2000 118.000 2 10 251
1935342N18131 1935 72 WP MM NOT_NAMED 1935-12-11 00:00:00 NR 14.0859 117.656 main 270 280 __________P___ -1 14.0859 117.656 2 11 254
1935342N18131 1935 72 WP MM NOT_NAMED 1935-12-11 03:00:00 NR 13.9649 117.128 main 335 335 __________P___ -1 13.9649 117.128 2 10 260
1935342N18131 1935 72 WP MM NOT_NAMED 1935-12-11 06:00:00 NR 13.9012 116.595 main 390 390 __________P___ -1 13.9012 116.595 2 10 266
1935342N18131 1935 72 WP MM NOT_NAMED 1935-12-11 09:00:00 NR 13.8916 116.071 main 442 452 __________P___ -1 13.8916 116.071 2 10 270
1935342N18131 1935 72 WP MM NOT_NAMED 1935-12-11 10:00:00 NR 13.9000 115.900 main 462 462 __________O___ -1 13.9000 115.900 2 9 274
1935342N18131 1935 72 WP MM NOT_NAMED 1935-12-11 12:00:00 NR 13.9232 115.603 main 492 492 __________P___ -1 13.9232 115.603 2 9 278
1935342N18131 1935 72 WP MM NOT_NAMED 1935-12-11 15:00:00 NR 14.0026 115.172 main 529 539 __________P___ -1 14.0026 115.172 2 9 283
1935342N18131 1935 72 WP MM NOT_NAMED 1935-12-11 18:00:00 NR 14.1190 114.717 main 577 528 __________P___ -1 14.1190 114.717 2 10 285
1935342N18131 1935 72 WP MM NOT_NAMED 1935-12-11 21:00:00 NR 14.2541 114.196 main 530 509 __________P___ -1 14.2541 114.196 2 11 285
1935342N18131 1935 72 WP MM NOT_NAMED 1935-12-11 22:00:00 NR 14.3000 114.000 main 509 467 __________O___ -1 14.3000 114.000 2 13 283
1935342N18131 1935 72 WP MM NOT_NAMED 1935-12-12 00:00:00 NR 14.3962 113.558 main 467 383 __________P___ -1 14.3962 113.558 2 14 282
1935342N18131 1935 72 WP MM NOT_NAMED 1935-12-12 03:00:00 NR 14.5469 112.818 main 383 304 __________P___ -1 14.5469 112.818 2 15 281
1935342N18131 1935 72 WP MM NOT_NAMED 1935-12-12 06:00:00 NR 14.6833 112.015 main 304 226 __________P___ -1 14.6833 112.015 2 16 278
1935342N18131 1935 72 WP MM NOT_NAMED 1935-12-12 09:00:00 NR 14.7805 111.180 main 226 193 __________P___ -1 14.7805 111.180 2 16 276
1935342N18131 1935 72 WP MM NOT_NAMED 1935-12-12 10:00:00 NR 14.8000 110.900 main 193 129 __________O___ -1 14.8000 110.900 2 16 273
1935342N18131 1935 72 WP MM NOT_NAMED 1935-12-12 12:00:00 NR 14.8163 110.343 main 129 44 __________P___ -1 14.8163 110.343 2 16 270
1935342N18131 1935 72 WP MM NOT_NAMED 1935-12-12 15:00:00 NR 14.7925 109.514 main 44 0 __________P___ -1 14.7925 109.514 2 16 267
1935342N18131 1935 72 WP MM NOT_NAMED 1935-12-12 18:00:00 NR 14.7258 108.691 main 0 0 __________P___ -1 14.7258 108.691 2 16 264
1935342N18131 1935 72 WP MM NOT_NAMED 1935-12-12 21:00:00 NR 14.6335 107.872 main 0 0 __________P___ -1 14.6335 107.872 2 16 263
1935342N18131 1935 72 WP MM NOT_NAMED 1935-12-12 22:00:00 NR 14.6000 107.600 main 0 __________O___ -1 14.6000 107.600 2 16 263

デジタル台風データ・検索

IBTrACS Databaseについて

本データベースは、米国NOAAが公開する1842年以降の世界の熱帯低気圧のベストトラックデータアーカイブInternational Best Track Archive for Climate Stewardship (IBTrACS)を、ウェブで閲覧しやすい形式に変換したものです。

最終更新日:2021-10-08